createdAt,value
2022-09-20T00:02:25.652Z,15.21
2022-09-20T00:07:24.475Z,15.12
2022-09-20T00:12:24.599Z,14.88
2022-09-20T00:17:23.401Z,14.91
2022-09-20T00:22:22.170Z,14.82
2022-09-20T00:27:20.990Z,14.92
2022-09-20T00:32:21.120Z,14.96
2022-09-20T00:37:19.825Z,14.86
2022-09-20T00:42:18.529Z,14.57
2022-09-20T00:47:33.072Z,14.80
2022-09-20T00:52:32.870Z,14.48
2022-09-20T00:57:35.476Z,14.28
2022-09-20T01:02:38.812Z,14.22
2022-09-20T01:07:38.303Z,13.88
2022-09-20T01:12:40.754Z,13.97
2022-09-20T01:17:44.147Z,13.97
2022-09-20T01:23:01.837Z,13.94
2022-09-20T01:28:02.054Z,13.86
2022-09-20T01:33:12.076Z,14.07
2022-09-20T01:38:28.290Z,14.23
2022-09-20T01:43:36.149Z,13.77
2022-09-20T01:48:39.666Z,13.97
2022-09-20T01:54:04.444Z,13.82
2022-09-20T01:59:39.390Z,13.82
2022-09-20T02:05:10.223Z,13.87
2022-09-20T02:10:32.524Z,13.83
2022-09-20T02:16:06.248Z,13.85
2022-09-20T02:21:11.694Z,13.71
2022-09-20T02:26:26.027Z,13.86
2022-09-20T02:31:52.890Z,13.47
2022-09-20T02:37:05.877Z,13.73
2022-09-20T02:42:12.953Z,13.51
2022-09-20T02:47:22.619Z,13.80
2022-09-20T02:52:31.901Z,13.51
2022-09-20T02:57:41.045Z,13.59
2022-09-20T03:02:52.758Z,13.55
2022-09-20T03:08:04.431Z,13.35
2022-09-20T03:13:15.155Z,13.18
2022-09-20T03:18:18.335Z,13.38
2022-09-20T03:23:25.325Z,13.12
2022-09-20T03:28:43.733Z,12.97
2022-09-20T03:33:55.305Z,13.06
2022-09-20T03:39:12.459Z,13.29
2022-09-20T03:44:47.517Z,13.41
2022-09-20T03:49:58.685Z,13.09
2022-09-20T03:55:39.549Z,12.97
2022-09-20T04:00:53.173Z,12.90
2022-09-20T04:06:06.777Z,12.68
2022-09-20T04:11:11.873Z,12.91
2022-09-20T04:16:24.710Z,12.97
2022-09-20T04:21:33.100Z,12.97
2022-09-20T04:26:36.372Z,13.23
2022-09-20T04:31:38.523Z,13.17
2022-09-20T04:36:58.386Z,13.26
2022-09-20T04:42:30.372Z,13.06
2022-09-20T04:47:57.498Z,13.13
2022-09-20T04:53:26.253Z,12.74
2022-09-20T04:58:40.643Z,12.99
2022-09-20T05:04:08.616Z,13.12
2022-09-20T05:09:29.552Z,13.09
2022-09-20T05:14:58.141Z,12.95
2022-09-20T05:20:31.157Z,13.24
2022-09-20T05:26:03.376Z,13.14
2022-09-20T05:31:08.098Z,12.99
2022-09-20T05:36:14.804Z,12.99
2022-09-20T05:41:24.950Z,13.08
2022-09-20T05:46:35.447Z,13.20
2022-09-20T05:51:49.957Z,13.19
2022-09-20T05:57:01.226Z,12.95
2022-09-20T06:02:13.385Z,13.13
2022-09-20T06:07:23.111Z,13.34
2022-09-20T06:12:52.952Z,13.51
2022-09-20T06:18:00.962Z,13.76
2022-09-20T06:23:02.080Z,13.97
2022-09-20T06:28:10.714Z,14.13
2022-09-20T06:33:17.896Z,14.24
2022-09-20T06:38:50.525Z,14.52
2022-09-20T06:43:50.952Z,14.69
2022-09-20T06:48:50.563Z,14.73
2022-09-20T06:53:49.668Z,14.92
2022-09-20T06:58:48.577Z,15.09
2022-09-20T07:03:49.000Z,15.12
2022-09-20T07:08:48.285Z,15.23
2022-09-20T07:13:52.435Z,15.16
2022-09-20T07:18:53.362Z,15.37
2022-09-20T07:23:54.065Z,15.53
2022-09-20T07:28:53.666Z,15.54
2022-09-20T07:33:56.638Z,15.54
2022-09-20T07:38:56.046Z,15.32
2022-09-20T07:43:54.865Z,15.47
2022-09-20T07:48:55.004Z,15.64
2022-09-20T07:53:55.991Z,15.73
2022-09-20T07:58:54.874Z,15.74
2022-09-20T08:03:55.151Z,16.00
2022-09-20T08:08:54.599Z,16.14
2022-09-20T08:14:10.259Z,16.11
2022-09-20T08:19:15.574Z,16.16
2022-09-20T08:24:16.661Z,16.33
2022-09-20T08:29:16.218Z,16.50
2022-09-20T08:34:17.790Z,16.48
2022-09-20T08:44:45.350Z,17.17
2022-09-20T08:49:46.568Z,17.59
2022-09-20T08:54:45.424Z,18.39
2022-09-20T08:59:44.421Z,18.84
2022-09-20T09:04:45.841Z,19.39
2022-09-20T09:09:47.820Z,19.91
2022-09-20T09:14:49.562Z,19.79
2022-09-20T09:19:51.853Z,20.25
2022-09-20T09:25:20.432Z,20.77
2022-09-20T09:30:22.729Z,20.95
2022-09-20T09:35:30.489Z,21.31
2022-09-20T09:40:31.840Z,21.39
2022-09-20T09:45:34.877Z,21.32
2022-09-20T09:50:35.887Z,21.52
2022-09-20T09:55:52.854Z,21.80
2022-09-20T10:00:54.245Z,21.96
2022-09-20T10:06:11.220Z,22.31
2022-09-20T10:11:24.357Z,22.81
2022-09-20T10:16:33.830Z,23.54
2022-09-20T10:21:48.918Z,23.93
2022-09-20T10:27:09.387Z,24.21
2022-09-20T10:32:21.230Z,24.47
2022-09-20T10:37:27.606Z,24.71
2022-09-20T10:42:54.938Z,24.28
2022-09-20T10:48:02.641Z,24.61
2022-09-20T10:53:18.856Z,24.81
2022-09-20T10:58:43.857Z,25.17
2022-09-20T11:04:00.559Z,25.37
2022-09-20T11:09:04.980Z,25.34
2022-09-20T11:14:07.595Z,25.14
2022-09-20T11:19:16.361Z,24.83
2022-09-20T11:24:28.047Z,25.33
2022-09-20T11:29:32.393Z,25.97
2022-09-20T11:34:34.544Z,25.42
2022-09-20T11:39:42.305Z,25.45
2022-09-20T11:44:42.550Z,25.60
2022-09-20T11:49:57.847Z,25.67
2022-09-20T11:55:15.449Z,25.61
2022-09-20T12:00:14.504Z,26.11
2022-09-20T12:05:28.013Z,26.81
2022-09-20T12:10:34.227Z,26.70
2022-09-20T12:15:36.949Z,26.58
2022-09-20T12:21:07.893Z,26.00
2022-09-20T12:26:11.112Z,26.20
2022-09-20T12:31:47.941Z,26.14
2022-09-20T12:37:20.336Z,25.62
2022-09-20T12:42:30.671Z,25.28
2022-09-20T12:47:31.930Z,24.73
2022-09-20T12:52:54.017Z,25.07
2022-09-20T12:57:56.594Z,24.92
2022-09-20T13:03:01.005Z,25.15
2022-09-20T13:08:03.993Z,24.93
2022-09-20T13:13:13.806Z,24.53
2022-09-20T13:18:15.652Z,24.02
2022-09-20T13:23:19.534Z,23.74
2022-09-20T13:28:30.053Z,23.54
2022-09-20T13:33:28.874Z,23.27
2022-09-20T13:38:30.067Z,23.16
2022-09-20T13:43:34.678Z,22.88
2022-09-20T13:48:35.029Z,22.82
2022-09-20T13:53:42.994Z,22.48
2022-09-20T13:58:43.830Z,22.63
2022-09-20T14:03:46.271Z,22.33
2022-09-20T14:08:52.744Z,22.41
2022-09-20T14:13:58.181Z,22.34
2022-09-20T14:19:01.499Z,22.06
2022-09-20T14:24:07.992Z,21.56
2022-09-20T14:29:40.079Z,21.65
2022-09-20T14:34:39.940Z,21.47
2022-09-20T14:39:48.731Z,21.35
2022-09-20T14:44:52.886Z,21.46
2022-09-20T14:49:51.579Z,21.23
2022-09-20T14:54:59.928Z,20.94
2022-09-20T15:00:06.095Z,20.89
2022-09-20T15:05:05.199Z,21.12
2022-09-20T15:10:05.693Z,21.14
2022-09-20T15:15:07.244Z,21.13
2022-09-20T15:20:06.952Z,21.02
2022-09-20T15:25:06.538Z,20.97
2022-09-20T15:30:10.216Z,21.03
2022-09-20T15:35:09.883Z,20.32
2022-09-20T15:40:10.189Z,20.27
2022-09-20T15:45:12.358Z,20.38
2022-09-20T15:50:11.846Z,20.17
2022-09-20T15:55:11.039Z,19.96
2022-09-20T16:00:21.557Z,19.53
2022-09-20T16:05:20.770Z,19.74
2022-09-20T16:10:19.579Z,19.57
2022-09-20T16:15:19.724Z,19.50
2022-09-20T16:20:18.481Z,19.55
2022-09-20T16:25:17.367Z,19.55
2022-09-20T16:30:16.357Z,19.44
2022-09-20T16:35:16.897Z,19.36
2022-09-20T16:40:15.864Z,19.37
2022-09-20T16:45:23.289Z,19.37
2022-09-20T16:50:23.546Z,19.31
2022-09-20T16:55:22.488Z,19.30
2022-09-20T17:00:22.102Z,19.32
2022-09-20T17:05:20.814Z,19.09
2022-09-20T17:10:21.550Z,19.13
2022-09-20T17:15:20.305Z,18.88
2022-09-20T17:20:18.995Z,18.81
2022-09-20T17:25:17.760Z,18.56
2022-09-20T17:30:17.896Z,18.60
2022-09-20T17:35:18.596Z,18.63
2022-09-20T17:40:18.535Z,18.42
2022-09-20T17:45:18.801Z,18.47
2022-09-20T17:50:17.984Z,18.41
2022-09-20T17:55:17.880Z,18.36
2022-09-20T18:00:18.291Z,18.22
2022-09-20T18:05:18.751Z,18.10
2022-09-20T18:10:17.706Z,18.12
2022-09-20T18:15:16.556Z,18.06
2022-09-20T18:20:17.054Z,18.01
2022-09-20T18:25:16.007Z,18.01
2022-09-20T18:30:15.462Z,18.00
2022-09-20T18:35:14.345Z,17.86
2022-09-20T18:40:14.578Z,17.77
2022-09-20T18:45:13.955Z,17.81
2022-09-20T18:50:13.145Z,17.64
2022-09-20T18:55:12.757Z,17.59
2022-09-20T19:00:14.620Z,17.54
2022-09-20T19:05:23.732Z,17.48
2022-09-20T19:10:36.082Z,17.43
2022-09-20T19:15:51.393Z,17.35
2022-09-20T19:20:54.726Z,17.27
2022-09-20T19:26:10.438Z,17.14
2022-09-20T19:31:24.202Z,17.13
2022-09-20T19:36:25.787Z,16.92
2022-09-20T19:41:39.901Z,16.78
2022-09-20T19:46:59.598Z,16.72
2022-09-20T19:52:05.406Z,16.61
2022-09-20T19:57:16.515Z,16.44
2022-09-20T20:02:21.043Z,16.61
2022-09-20T20:07:29.842Z,16.45
2022-09-20T20:12:37.139Z,16.47
2022-09-20T20:17:51.410Z,16.50
2022-09-20T20:23:21.654Z,16.21
2022-09-20T20:28:23.334Z,16.27
2022-09-20T20:33:23.709Z,16.24
2022-09-20T20:38:27.158Z,16.20
2022-09-20T20:43:28.045Z,16.02
2022-09-20T20:48:28.684Z,16.08
2022-09-20T20:53:31.548Z,15.95
2022-09-20T20:58:32.594Z,15.77
2022-09-20T21:03:33.663Z,15.93
2022-09-20T21:08:34.348Z,15.88
2022-09-20T21:13:33.219Z,15.88
2022-09-20T21:18:33.981Z,15.83
2022-09-20T21:23:36.502Z,15.95
2022-09-20T21:28:36.973Z,15.99
2022-09-20T21:33:38.616Z,15.92
2022-09-20T21:38:37.611Z,15.99
2022-09-20T21:43:37.141Z,16.06
2022-09-20T21:48:37.505Z,16.00
2022-09-20T21:53:37.169Z,15.93
2022-09-20T21:58:36.256Z,15.78
2022-09-20T22:03:36.217Z,15.78
2022-09-20T22:08:37.718Z,15.65
2022-09-20T22:13:41.465Z,15.56
2022-09-20T22:18:41.892Z,15.56
2022-09-20T22:23:42.849Z,15.27
2022-09-20T22:28:43.086Z,15.49
2022-09-20T22:33:43.936Z,15.63
2022-09-20T22:38:45.576Z,15.64
2022-09-20T22:43:44.450Z,15.58
2022-09-20T22:48:43.987Z,15.44
2022-09-20T22:53:44.980Z,15.40
2022-09-20T22:58:45.390Z,15.30
2022-09-20T23:03:45.957Z,15.29
2022-09-20T23:08:46.174Z,15.32
2022-09-20T23:13:45.399Z,15.32
2022-09-20T23:18:44.245Z,15.15
2022-09-20T23:23:43.669Z,15.15
2022-09-20T23:28:45.621Z,15.13
2022-09-20T23:33:48.406Z,15.02
2022-09-20T23:38:47.937Z,15.03
2022-09-20T23:43:48.634Z,15.02
2022-09-20T23:48:47.636Z,14.92
2022-09-20T23:53:46.910Z,14.80
2022-09-20T23:58:47.148Z,15.01
